Time;durP1;ratioP1;P1;durP2;ratioP2;P2;SDS_P1;SDS_P2;PMS_P1;PMS_P2;Temp;Humidity;BMP_temperature;BMP_pressure;BME280_temperature;BME280_humidity;BME280_pressure;Samples;Min_cycle;Max_cycle;Signal;HPM_P1;HPM_P2
2024/03/05 00:01:31;;;;;;;;;;;;;;;;;;4996219;28;19913;-86
2024/03/05 00:03:56;;;;;;;;;;;;;;;;;;4994627;28;19981;-88
2024/03/05 00:06:21;;;;;;;;;;;;;;;;;;4990419;28;19924;-88
2024/03/05 00:08:47;;;;;;;;;;;;;;;;;;5013748;28;20328;-86
2024/03/05 00:11:14;;;;;;;;;;;;;;;;;;5011749;28;19917;-89
2024/03/05 00:13:43;;;;;;;;;;;;;;;;;;4994616;28;20009;-88
2024/03/05 00:16:12;;;;;;;;;;;;;;;;;;4993443;28;19964;-87
2024/03/05 00:18:42;;;;;;;;;;;;;;;;;;5028399;28;19921;-87
2024/03/05 00:21:07;;;;;;;;;;;;;;;;;;5014787;28;19929;-86
2024/03/05 00:23:32;;;;;;;;;;;;;;;;;;5018511;28;20280;-89
2024/03/05 00:25:58;;;;;;;;;;;;;;;;;;5002662;28;20009;-88
2024/03/05 00:28:24;;;;;;;;;;;;;;;;;;5008218;28;19952;-89
2024/03/05 00:30:53;;;;;;;;;;;;;;;;;;5015370;28;19921;-87
2024/03/05 00:33:21;;;;;;;;;;;;;;;;;;4998004;28;20254;-87
2024/03/05 00:35:54;;;;;;;;;;;;;;;;;;5011927;28;19913;-85
2024/03/05 00:38:21;;;;;;;;;;;;;;;;;;5006288;28;19976;-87
2024/03/05 00:40:46;;;;;;;;;;;;;;;;;;5011519;28;19945;-89
2024/03/05 00:43:14;;;;;;;;;;;;;;;;;;4993755;28;20254;-88
2024/03/05 00:45:42;;;;;;;;;;;;;;;;;;5018681;28;19922;-86
2024/03/05 00:48:08;;;;;;;;;;;;;;;;;;5019846;28;19953;-88
2024/03/05 00:50:35;;;;;;;;;;;;;;;;;;4996565;28;19932;-87
2024/03/05 00:53:04;;;;;;;;;;;;;;;;;;5027166;28;19917;-87
2024/03/05 00:55:29;;;;;;;;;;;;;;;;;;4998099;28;19924;-89
2024/03/05 00:57:55;;;;;;;;;;;;;;;;;;4997078;28;19921;-86
2024/03/05 01:00:24;;;;;;;;;;;;;;;;;;5031633;28;19948;-82
2024/03/05 01:02:52;;;;;;;;;;;;;;;;;;4999070;28;19928;-87
2024/03/05 01:05:30;;;;;;;;;;;;;;;;;;5028967;28;19917;-88
2024/03/05 01:07:55;;;;;;;;;;;;;;;;;;5017455;28;20000;-86
2024/03/05 01:10:20;;;;;;;;;;;;;;;;;;5014139;28;19964;-91
2024/03/05 01:12:46;;;;;;;;;;;;;;;;;;5016082;28;19971;-88
2024/03/05 01:15:13;;;;;;;;;;;;;;;;;;5019822;28;20004;-89
2024/03/05 01:17:41;;;;;;;;;;;;;;;;;;5019940;28;20396;-91
2024/03/05 01:20:15;;;;;;;;;;;;;;;;;;5021286;28;20342;-92
2024/03/05 01:22:40;;;;;;;;;;;;;;;;;;5008428;28;19929;-86
2024/03/05 01:25:09;;;;;;;;;;;;;;;;;;5011734;28;19945;-86
2024/03/05 01:27:35;;;;;;;;;;;;;;;;;;5029652;28;19924;-86
2024/03/05 01:30:00;;;;;;;;;;;;;;;;;;5014527;28;19928;-83
2024/03/05 01:32:28;;;;;;;;;;;;;;;;;;5023728;28;19913;-85
2024/03/05 01:34:56;;;;;;;;;;;;;;;;;;5019101;28;19928;-90
2024/03/05 01:37:23;;;;;;;;;;;;;;;;;;4998745;28;19925;-91
2024/03/05 01:39:48;;;;;;;;;;;;;;;;;;5013729;28;20292;-88
2024/03/05 01:42:14;;;;;;;;;;;;;;;;;;5012642;28;19961;-88
2024/03/05 01:44:39;;;;;;;;;;;;;;;;;;5015734;28;19914;-88
2024/03/05 01:47:07;;;;;;;;;;;;;;;;;;5026581;28;19932;-89
2024/03/05 01:49:33;;;;;;;;;;;;;;;;;;5014882;28;20292;-89
2024/03/05 01:51:59;;;;;;;;;;;;;;;;;;4999650;28;19913;-87
2024/03/05 01:54:26;;;;;;;;;;;;;;;;;;5029053;28;19918;-89
2024/03/05 01:56:57;;;;;;;;;;;;;;;;;;4997347;28;19933;-89
2024/03/05 01:59:25;;;;;;;;;;;;;;;;;;4999694;28;19914;-87
2024/03/05 02:01:50;;;;;;;;;;;;;;;;;;4998152;28;19929;-90
2024/03/05 02:04:17;;;;;;;;;;;;;;;;;;5015832;28;20220;-89
2024/03/05 02:06:45;;;;;;;;;;;;;;;;;;5015799;28;19917;-85
2024/03/05 02:09:11;;;;;;;;;;;;;;;;;;5017307;28;19913;-87
2024/03/05 02:11:37;;;;;;;;;;;;;;;;;;4999416;28;20001;-87
2024/03/05 02:14:02;;;;;;;;;;;;;;;;;;5000270;28;20004;-89
2024/03/05 02:16:29;;;;;;;;;;;;;;;;;;5013108;28;19953;-88
2024/03/05 02:18:56;;;;;;;;;;;;;;;;;;5015624;28;19949;-87
2024/03/05 02:21:21;;;;;;;;;;;;;;;;;;5004521;28;19921;-90
2024/03/05 02:23:47;;;;;;;;;;;;;;;;;;5033031;28;19932;-86
2024/03/05 02:26:12;;;;;;;;;;;;;;;;;;4996592;28;19918;-88
2024/03/05 02:28:38;;;;;;;;;;;;;;;;;;4998160;28;19932;-88
2024/03/05 02:31:03;;;;;;;;;;;;;;;;;;4998726;28;20752;-91
2024/03/05 02:33:34;;;;;;;;;;;;;;;;;;4996883;28;19986;-88
2024/03/05 02:35:59;;;;;;;;;;;;;;;;;;5016054;28;19986;-88
2024/03/05 02:38:27;;;;;;;;;;;;;;;;;;5031604;28;19933;-90
2024/03/05 02:40:56;;;;;;;;;;;;;;;;;;5017867;28;19914;-84
2024/03/05 02:43:22;;;;;;;;;;;;;;;;;;5005527;28;19914;-86
2024/03/05 02:45:50;;;;;;;;;;;;;;;;;;5023333;28;19968;-88
2024/03/05 02:48:16;;;;;;;;;;;;;;;;;;5015254;28;19914;-91
2024/03/05 02:50:42;;;;;;;;;;;;;;;;;;5005475;28;19925;-88
2024/03/05 02:53:08;;;;;;;;;;;;;;;;;;5007111;28;20088;-87
2024/03/05 02:55:38;;;;;;;;;;;;;;;;;;5004809;28;19983;-90
2024/03/05 02:58:03;;;;;;;;;;;;;;;;;;5025370;28;19920;-86
2024/03/05 03:00:28;;;;;;;;;;;;;;;;;;5009999;28;19961;-89
2024/03/05 03:02:54;;;;;;;;;;;;;;;;;;5010106;28;19921;-87
2024/03/05 03:05:22;;;;;;;;;;;;;;;;;;5024614;28;20056;-89
2024/03/05 03:07:48;;;;;;;;;;;;;;;;;;5008296;28;19917;-85
2024/03/05 03:10:13;;;;;;;;;;;;;;;;;;5023735;28;19993;-85
2024/03/05 03:12:39;;;;;;;;;;;;;;;;;;5041986;28;19993;-84
2024/03/05 03:15:08;;;;;;;;;;;;;;;;;;5025184;28;19914;-86
2024/03/05 03:17:34;;;;;;;;;;;;;;;;;;5007620;28;19932;-86
2024/03/05 03:19:59;;;;;;;;;;;;;;;;;;5021983;28;19909;-89
2024/03/05 03:22:26;;;;;;;;;;;;;;;;;;5019036;28;19959;-90
2024/03/05 03:24:51;;;;;;;;;;;;;;;;;;4996651;28;19918;-87
2024/03/05 03:27:16;;;;;;;;;;;;;;;;;;5002200;28;19929;-88
2024/03/05 03:29:45;;;;;;;;;;;;;;;;;;5000638;28;19917;-89
2024/03/05 03:32:10;;;;;;;;;;;;;;;;;;5010192;28;20332;-89
2024/03/05 03:34:36;;;;;;;;;;;;;;;;;;5014929;28;19917;-88
2024/03/05 03:37:02;;;;;;;;;;;;;;;;;;5005990;28;19948;-86
2024/03/05 03:39:27;;;;;;;;;;;;;;;;;;5020537;28;19989;-88
2024/03/05 03:41:56;;;;;;;;;;;;;;;;;;5001741;28;20002;-90
2024/03/05 03:44:22;;;;;;;;;;;;;;;;;;5014793;28;19971;-89
2024/03/05 03:46:49;;;;;;;;;;;;;;;;;;5001000;28;19957;-89
2024/03/05 03:49:16;;;;;;;;;;;;;;;;;;5002174;28;19933;-86
2024/03/05 03:51:41;;;;;;;;;;;;;;;;;;5000304;28;19968;-89
2024/03/05 03:54:06;;;;;;;;;;;;;;;;;;4999068;28;19933;-86
2024/03/05 03:56:34;;;;;;;;;;;;;;;;;;4999186;28;20024;-86
2024/03/05 03:59:05;;;;;;;;;;;;;;;;;;5012791;28;19968;-87
2024/03/05 04:01:31;;;;;;;;;;;;;;;;;;4997677;28;19924;-88
2024/03/05 04:03:58;;;;;;;;;;;;;;;;;;4997426;28;19917;-86
2024/03/05 04:06:24;;;;;;;;;;;;;;;;;;4999568;28;19925;-88
2024/03/05 04:08:51;;;;;;;;;;;;;;;;;;5014749;28;19925;-89
2024/03/05 04:11:17;;;;;;;;;;;;;;;;;;4999020;28;19955;-88
2024/03/05 04:13:44;;;;;;;;;;;;;;;;;;5000692;28;20411;-87
2024/03/05 04:16:13;;;;;;;;;;;;;;;;;;5016300;28;20017;-89
2024/03/05 04:18:38;;;;;;;;;;;;;;;;;;5000862;28;19924;-86
2024/03/05 04:21:03;;;;;;;;;;;;;;;;;;5016877;28;19922;-85
2024/03/05 04:23:29;;;;;;;;;;;;;;;;;;4997899;28;19967;-86
2024/03/05 04:25:58;;;;;;;;;;;;;;;;;;5015906;28;20333;-87
2024/03/05 04:28:24;;;;;;;;;;;;;;;;;;4995420;28;19913;-87
2024/03/05 04:30:52;;;;;;;;;;;;;;;;;;4997908;28;19979;-90
2024/03/05 04:33:20;;;;;;;;;;;;;;;;;;5000552;28;19921;-89
2024/03/05 04:35:45;;;;;;;;;;;;;;;;;;4998553;28;19996;-88
2024/03/05 04:38:10;;;;;;;;;;;;;;;;;;4995633;28;19987;-87
2024/03/05 04:40:36;;;;;;;;;;;;;;;;;;5014868;28;19928;-87
2024/03/05 04:43:01;;;;;;;;;;;;;;;;;;5018231;28;19924;-89
2024/03/05 04:45:27;;;;;;;;;;;;;;;;;;5005324;28;20235;-87
2024/03/05 04:47:53;;;;;;;;;;;;;;;;;;5017344;28;19917;-89
2024/03/05 04:50:21;;;;;;;;;;;;;;;;;;5001356;28;19913;-88
2024/03/05 04:52:47;;;;;;;;;;;;;;;;;;5019755;28;19952;-87
2024/03/05 04:55:13;;;;;;;;;;;;;;;;;;5022650;28;21744;-88
2024/03/05 04:57:40;;;;;;;;;;;;;;;;;;5007077;28;19924;-87
2024/03/05 05:00:23;;;;;;;;;;;;;;;;;;5007110;28;19957;-87
2024/03/05 05:02:49;;;;;;;;;;;;;;;;;;5007882;28;19913;-85
2024/03/05 05:05:27;;;;;;;;;;;;;;;;;;5001325;28;20354;-86
2024/03/05 05:07:53;;;;;;;;;;;;;;;;;;5033143;28;19914;-88
2024/03/05 05:10:22;;;;;;;;;;;;;;;;;;5005820;28;19928;-87
2024/03/05 05:35:50;;;;;;;;;;;;;;;;;;5072365;22;20408;-65
2024/03/05 05:38:18;;;;;;;;;;;;;;;;;;4975083;28;19922;-65
2024/03/05 05:40:43;;;;;;;;;;;;;;;;;;4983673;28;20830;-65
2024/03/05 05:43:08;;;;;;;;;;;;;;;;;;4981823;28;19922;-67
2024/03/05 05:45:34;;;;;;;;;;;;;;;;;;4981865;28;19924;-66
2024/03/05 05:48:02;;;;;;;;;;;;;;;;;;4982352;28;19975;-65
2024/03/05 05:50:31;;;;;;;;;;;;;;;;;;4980955;28;20004;-67
2024/03/05 05:53:01;;;;;;;;;;;;;;;;;;4975113;28;20393;-67
2024/03/05 05:55:30;;;;;;;;;;;;;;;;;;4975362;28;20127;-66
2024/03/05 05:57:55;;;;;;;;;;;;;;;;;;4976794;28;19972;-67
2024/03/05 06:00:24;;;;;;;;;;;;;;;;;;4974949;28;20438;-68
2024/03/05 06:02:50;;;;;;;;;;;;;;;;;;4974172;28;19997;-66
2024/03/05 06:05:15;;;;;;;;;;;;;;;;;;4973644;28;20630;-67
2024/03/05 06:07:40;;;;;;;;;;;;;;;;;;4982167;28;19918;-65
2024/03/05 06:10:05;;;;;;;;;;;;;;;;;;4983882;28;19945;-65
2024/03/05 06:12:33;;;;;;;;;;;;;;;;;;4976071;28;19984;-65
2024/03/05 06:14:58;;;;;;;;;;;;;;;;;;4978037;28;19972;-70
2024/03/05 06:17:24;;;;;;;;;;;;;;;;;;4975238;28;19926;-66
2024/03/05 06:19:50;;;;;;;;;;;;;;;;;;4975517;28;20012;-67
2024/03/05 06:22:15;;;;;;;;;;;;;;;;;;4974024;28;19969;-66
2024/03/05 06:24:42;;;;;;;;;;;;;;;;;;4982792;28;20415;-67
2024/03/05 06:27:10;;;;;;;;;;;;;;;;;;4976029;28;19931;-67
2024/03/05 06:29:39;;;;;;;;;;;;;;;;;;4976238;28;19928;-67
2024/03/05 06:32:05;;;;;;;;;;;;;;;;;;4975330;28;19984;-67
2024/03/05 06:34:30;;;;;;;;;;;;;;;;;;4979764;28;20127;-69
2024/03/05 06:36:57;;;;;;;;;;;;;;;;;;4975185;28;20365;-67
2024/03/05 06:39:29;;;;;;;;;;;;;;;;;;4959299;28;19917;-67
2024/03/05 06:41:59;;;;;;;;;;;;;;;;;;4981955;28;20361;-67
2024/03/05 06:44:35;;;;;;;;;;;;;;;;;;4977773;28;20321;-66
2024/03/05 06:47:04;;;;;;;;;;;;;;;;;;4970810;28;19917;-66
2024/03/05 06:49:37;;;;;;;;;;;;;;;;;;4980954;28;19976;-67
2024/03/05 06:57:32;;;;;;;;;;;;;;;;;;4975810;28;19914;-67
2024/03/05 06:59:57;;;;;;;;;;;;;;;;;;4981577;28;19922;-66
2024/03/05 07:02:30;;;;;;;;;;;;;;;;;;4974055;28;20035;-67
2024/03/05 07:04:58;;;;;;;;;;;;;;;;;;4975333;28;19922;-67
2024/03/05 07:07:23;;;;;;;;;;;;;;;;;;4981431;28;19925;-67
2024/03/05 07:09:49;;;;;;;;;;;;;;;;;;4963945;28;20040;-68
2024/03/05 07:12:16;;;;;;;;;;;;;;;;;;4964477;28;19921;-67
2024/03/05 07:14:45;;;;;;;;;;;;;;;;;;4981632;28;19945;-68
2024/03/05 07:17:10;;;;;;;;;;;;;;;;;;4966575;28;20369;-67
2024/03/05 07:19:35;;;;;;;;;;;;;;;;;;4980628;28;20259;-67
2024/03/05 07:22:07;;;;;;;;;;;;;;;;;;4981959;28;20064;-68
2024/03/05 07:24:32;;;;;;;;;;;;;;;;;;4972906;28;19924;-67
2024/03/05 07:26:57;;;;;;;;;;;;;;;;;;4975047;28;19917;-67
2024/03/05 07:29:23;;;;;;;;;;;;;;;;;;4975269;28;20385;-67
2024/03/05 07:31:49;;;;;;;;;;;;;;;;;;4980116;28;19917;-67
2024/03/05 07:34:16;;;;;;;;;;;;;;;;;;4974019;28;20296;-68
2024/03/05 07:36:44;;;;;;;;;;;;;;;;;;4972635;28;19932;-67
2024/03/05 07:39:11;;;;;;;;;;;;;;;;;;4981503;28;19921;-68
2024/03/05 07:41:42;;;;;;;;;;;;;;;;;;4973021;28;19918;-67
2024/03/05 07:44:07;;;;;;;;;;;;;;;;;;4971310;28;19925;-68
2024/03/05 07:46:33;;;;;;;;;;;;;;;;;;4981058;28;19923;-68
2024/03/05 07:48:58;;;;;;;;;;;;;;;;;;4987646;28;19922;-68
2024/03/05 07:51:30;;;;;;;;;;;;;;;;;;4975139;28;19988;-68
2024/03/05 07:53:56;;;;;;;;;;;;;;;;;;4980300;28;19930;-65
2024/03/05 07:56:21;;;;;;;;;;;;;;;;;;4966815;28;20422;-68
2024/03/05 07:58:46;;;;;;;;;;;;;;;;;;4964444;28;20278;-67
2024/03/05 08:01:11;;;;;;;;;;;;;;;;;;4964713;28;19922;-69
2024/03/05 08:03:37;;;;;;;;;;;;;;;;;;4974398;28;20262;-67
2024/03/05 08:06:05;;;;;;;;;;;;;;;;;;4974049;28;20383;-66
2024/03/05 08:08:33;;;;;;;;;;;;;;;;;;4980386;28;19918;-69
2024/03/05 08:10:58;;;;;;;;;;;;;;;;;;4966654;28;20376;-67
2024/03/05 08:13:24;;;;;;;;;;;;;;;;;;4973883;28;19921;-67
2024/03/05 08:15:49;;;;;;;;;;;;;;;;;;4971554;28;19918;-68
2024/03/05 08:18:14;;;;;;;;;;;;;;;;;;4966763;28;19921;-71
2024/03/05 08:20:40;;;;;;;;;;;;;;;;;;4979172;28;19958;-68
2024/03/05 08:23:07;;;;;;;;;;;;;;;;;;4985442;28;19925;-67
2024/03/05 08:25:37;;;;;;;;;;;;;;;;;;4977957;28;19922;-67
2024/03/05 08:28:05;;;;;;;;;;;;;;;;;;4979033;28;19922;-68
2024/03/05 08:30:31;;;;;;;;;;;;;;;;;;4982892;28;19937;-68
2024/03/05 08:33:00;;;;;;;;;;;;;;;;;;4978159;28;19922;-66
2024/03/05 08:35:29;;;;;;;;;;;;;;;;;;4975892;28;20550;-68
2024/03/05 08:37:55;;;;;;;;;;;;;;;;;;4968180;28;20388;-67
2024/03/05 08:40:24;;;;;;;;;;;;;;;;;;4982761;28;20057;-67
2024/03/05 08:42:55;;;;;;;;;;;;;;;;;;4955837;28;19918;-67
2024/03/05 08:45:20;;;;;;;;;;;;;;;;;;4976154;28;19957;-65
2024/03/05 08:47:48;;;;;;;;;;;;;;;;;;4983094;28;19918;-68
2024/03/05 08:50:13;;;;;;;;;;;;;;;;;;4971991;28;19925;-67
2024/03/05 08:52:41;;;;;;;;;;;;;;;;;;4975867;28;19918;-66
2024/03/05 08:55:10;;;;;;;;;;;;;;;;;;4981331;28;20340;-67
2024/03/05 08:57:38;;;;;;;;;;;;;;;;;;4977142;28;19917;-66
2024/03/05 09:00:03;;;;;;;;;;;;;;;;;;4978140;28;19968;-70
2024/03/05 09:02:31;;;;;;;;;;;;;;;;;;4983301;28;19980;-66
2024/03/05 09:05:04;;;;;;;;;;;;;;;;;;4983051;28;20573;-68
2024/03/05 09:07:32;;;;;;;;;;;;;;;;;;4976762;28;20249;-66
2024/03/05 09:09:58;;;;;;;;;;;;;;;;;;4984251;28;20520;-69
2024/03/05 09:12:23;;;;;;;;;;;;;;;;;;4975515;28;20385;-67
2024/03/05 09:14:51;;;;;;;;;;;;;;;;;;4977567;28;19926;-68
2024/03/05 09:17:21;;;;;;;;;;;;;;;;;;4982333;28;20041;-66
2024/03/05 09:19:49;;;;;;;;;;;;;;;;;;4984182;28;19925;-68
2024/03/05 09:22:16;;;;;;;;;;;;;;;;;;4983543;28;19996;-68
2024/03/05 09:24:43;;;;;;;;;;;;;;;;;;4973862;28;19957;-67
2024/03/05 09:27:08;;;;;;;;;;;;;;;;;;4983344;28;19917;-68
2024/03/05 09:29:36;;;;;;;;;;;;;;;;;;4975051;28;19918;-67
2024/03/05 09:32:02;;;;;;;;;;;;;;;;;;4975142;28;19925;-67
2024/03/05 09:34:27;;;;;;;;;;;;;;;;;;4967488;28;20135;-67
2024/03/05 09:36:55;;;;;;;;;;;;;;;;;;4982335;28;20290;-67
2024/03/05 09:39:23;;;;;;;;;;;;;;;;;;4973551;28;20309;-67
2024/03/05 09:41:52;;;;;;;;;;;;;;;;;;4983579;28;19918;-68
2024/03/05 09:44:18;;;;;;;;;;;;;;;;;;4974842;28;19918;-69
2024/03/05 09:46:48;;;;;;;;;;;;;;;;;;4975560;28;20037;-68
2024/03/05 09:49:13;;;;;;;;;;;;;;;;;;4982058;28;20008;-70
2024/03/05 09:51:39;;;;;;;;;;;;;;;;;;4974587;28;19940;-68
2024/03/05 09:54:06;;;;;;;;;;;;;;;;;;4991083;28;20381;-69
2024/03/05 09:56:31;;;;;;;;;;;;;;;;;;4967563;28;19918;-68
2024/03/05 09:58:56;;;;;;;;;;;;;;;;;;4990277;28;19979;-71
2024/03/05 10:01:23;;;;;;;;;;;;;;;;;;4976982;28;19917;-67
2024/03/05 10:07:07;;;;;;;;;;;;;;;;;;4975807;28;19929;-67
2024/03/05 10:09:33;;;;;;;;;;;;;;;;;;4971947;28;19960;-69
2024/03/05 10:11:58;;;;;;;;;;;;;;;;;;4965926;28;20032;-68
2024/03/05 10:14:26;;;;;;;;;;;;;;;;;;4966078;28;20040;-68
2024/03/05 10:16:54;;;;;;;;;;;;;;;;;;4982561;28;20389;-72
2024/03/05 10:19:20;;;;;;;;;;;;;;;;;;4972693;28;19940;-67
2024/03/05 10:21:47;;;;;;;;;;;;;;;;;;4982903;28;19921;-67
2024/03/05 10:24:13;;;;;;;;;;;;;;;;;;4976866;28;19925;-68
2024/03/05 10:26:43;;;;;;;;;;;;;;;;;;4965050;28;19921;-68
2024/03/05 10:29:08;;;;;;;;;;;;;;;;;;4976498;28;19997;-68
2024/03/05 10:31:39;;;;;;;;;;;;;;;;;;4981581;28;19921;-69
2024/03/05 10:34:07;;;;;;;;;;;;;;;;;;4975338;28;20378;-69
2024/03/05 10:36:32;;;;;;;;;;;;;;;;;;4980944;28;20040;-68
2024/03/05 10:39:02;;;;;;;;;;;;;;;;;;4964713;28;19922;-68
2024/03/05 10:41:31;;;;;;;;;;;;;;;;;;4975360;28;19929;-68
2024/03/05 10:44:01;;;;;;;;;;;;;;;;;;4981298;28;19917;-68
2024/03/05 10:46:27;;;;;;;;;;;;;;;;;;4981593;28;20529;-69
2024/03/05 10:48:58;;;;;;;;;;;;;;;;;;4974563;28;20290;-69
2024/03/05 10:51:28;;;;;;;;;;;;;;;;;;4964236;28;20377;-68
2024/03/05 10:53:53;;;;;;;;;;;;;;;;;;4980727;28;19933;-68
2024/03/05 10:56:21;;;;;;;;;;;;;;;;;;4974876;28;19928;-68
2024/03/05 11:01:13;;;;;;;;;;;;;;;;;;4976060;28;19972;-68
2024/03/05 11:03:41;;;;;;;;;;;;;;;;;;4977298;28;20340;-67
2024/03/05 11:06:07;;;;;;;;;;;;;;;;;;4971316;28;20931;-67
2024/03/05 11:08:35;;;;;;;;;;;;;;;;;;4981262;28;20183;-70
2024/03/05 11:11:02;;;;;;;;;;;;;;;;;;4974440;28;20461;-68
2024/03/05 11:13:28;;;;;;;;;;;;;;;;;;4981407;28;19932;-68
2024/03/05 11:15:53;;;;;;;;;;;;;;;;;;4981268;28;19922;-71
2024/03/05 11:18:21;;;;;;;;;;;;;;;;;;4974895;28;19928;-68
2024/03/05 11:20:46;;;;;;;;;;;;;;;;;;4979569;28;20011;-68
2024/03/05 11:23:13;;;;;;;;;;;;;;;;;;4978086;28;19918;-68
2024/03/05 11:25:41;;;;;;;;;;;;;;;;;;4978761;28;20377;-69
2024/03/05 11:28:11;;;;;;;;;;;;;;;;;;4973318;28;20393;-68
2024/03/05 11:30:41;;;;;;;;;;;;;;;;;;4974464;28;19921;-68
2024/03/05 11:33:09;;;;;;;;;;;;;;;;;;4980555;28;19950;-67
2024/03/05 11:35:35;;;;;;;;;;;;;;;;;;4973840;28;19933;-68
2024/03/05 11:38:02;;;;;;;;;;;;;;;;;;4980709;28;20368;-68
2024/03/05 11:40:31;;;;;;;;;;;;;;;;;;4972174;28;20004;-70
2024/03/05 11:42:57;;;;;;;;;;;;;;;;;;4979597;28;20393;-67
2024/03/05 11:45:22;;;;;;;;;;;;;;;;;;4964320;28;19925;-69
2024/03/05 11:47:50;;;;;;;;;;;;;;;;;;4974882;28;19925;-68
2024/03/05 11:50:15;;;;;;;;;;;;;;;;;;4975184;28;19926;-67
2024/03/05 11:52:41;;;;;;;;;;;;;;;;;;4971268;28;19922;-68
2024/03/05 11:55:06;;;;;;;;;;;;;;;;;;4960453;28;20478;-69
2024/03/05 11:57:34;;;;;;;;;;;;;;;;;;4990413;28;19918;-69
2024/03/05 11:59:59;;;;;;;;;;;;;;;;;;4971950;28;19981;-69
2024/03/05 12:02:25;;;;;;;;;;;;;;;;;;4970677;28;20144;-69
2024/03/05 12:04:53;;;;;;;;;;;;;;;;;;4962439;28;20041;-68
2024/03/05 12:07:18;;;;;;;;;;;;;;;;;;4965410;28;19941;-68
2024/03/05 12:09:44;;;;;;;;;;;;;;;;;;4963433;28;19925;-69
2024/03/05 12:12:12;;;;;;;;;;;;;;;;;;4972282;28;19928;-68
2024/03/05 12:14:39;;;;;;;;;;;;;;;;;;4971130;28;20447;-67
2024/03/05 12:17:07;;;;;;;;;;;;;;;;;;4959784;28;19921;-67
2024/03/05 12:19:34;;;;;;;;;;;;;;;;;;4970878;28;19925;-68
2024/03/05 12:21:59;;;;;;;;;;;;;;;;;;4961768;28;20023;-67
2024/03/05 12:24:27;;;;;;;;;;;;;;;;;;4972272;28;19922;-68
2024/03/05 12:26:55;;;;;;;;;;;;;;;;;;4971154;28;19949;-68
2024/03/05 12:29:21;;;;;;;;;;;;;;;;;;4973122;28;21569;-67
2024/03/05 12:31:48;;;;;;;;;;;;;;;;;;4971828;28;20122;-67
2024/03/05 12:34:14;;;;;;;;;;;;;;;;;;4978071;28;19933;-68
2024/03/05 12:36:40;;;;;;;;;;;;;;;;;;4972805;28;19925;-68
2024/03/05 12:39:07;;;;;;;;;;;;;;;;;;4969815;28;19921;-68
2024/03/05 12:41:35;;;;;;;;;;;;;;;;;;4970282;28;19918;-68
2024/03/05 12:44:00;;;;;;;;;;;;;;;;;;4979191;28;19940;-70
2024/03/05 12:46:26;;;;;;;;;;;;;;;;;;4980552;28;19957;-68
2024/03/05 12:48:51;;;;;;;;;;;;;;;;;;4971082;28;19947;-68
2024/03/05 12:51:21;;;;;;;;;;;;;;;;;;4969483;28;20009;-68
2024/03/05 12:53:49;;;;;;;;;;;;;;;;;;4978180;28;19930;-68
2024/03/05 12:56:15;;;;;;;;;;;;;;;;;;4972759;28;19988;-69
2024/03/05 12:58:44;;;;;;;;;;;;;;;;;;4971302;28;20015;-68
2024/03/05 13:01:14;;;;;;;;;;;;;;;;;;4945677;28;20048;-68
2024/03/05 13:03:40;;;;;;;;;;;;;;;;;;4974184;28;19929;-67
2024/03/05 13:06:05;;;;;;;;;;;;;;;;;;4972003;28;19922;-69
2024/03/05 13:08:30;;;;;;;;;;;;;;;;;;4975694;28;19925;-68
2024/03/05 13:10:58;;;;;;;;;;;;;;;;;;4975951;28;20401;-68
2024/03/05 13:13:26;;;;;;;;;;;;;;;;;;4981433;28;20013;-68
2024/03/05 13:15:54;;;;;;;;;;;;;;;;;;4976888;28;19929;-67
2024/03/05 13:18:22;;;;;;;;;;;;;;;;;;4974415;28;19961;-67
2024/03/05 13:20:50;;;;;;;;;;;;;;;;;;4982328;28;19917;-69
2024/03/05 13:23:16;;;;;;;;;;;;;;;;;;4959194;28;19944;-69
2024/03/05 13:25:47;;;;;;;;;;;;;;;;;;4979458;28;19924;-69
2024/03/05 13:28:15;;;;;;;;;;;;;;;;;;4976360;28;19921;-69
2024/03/05 13:30:41;;;;;;;;;;;;;;;;;;4981583;28;19926;-68
2024/03/05 13:33:09;;;;;;;;;;;;;;;;;;4981988;28;20024;-69
2024/03/05 13:35:36;;;;;;;;;;;;;;;;;;4974205;28;20463;-67
2024/03/05 13:38:03;;;;;;;;;;;;;;;;;;4976032;28;19977;-67
2024/03/05 13:40:32;;;;;;;;;;;;;;;;;;4975241;28;19929;-68
2024/03/05 13:43:00;;;;;;;;;;;;;;;;;;4975076;28;19921;-67
2024/03/05 13:45:28;;;;;;;;;;;;;;;;;;4981023;28;20040;-68
2024/03/05 13:47:54;;;;;;;;;;;;;;;;;;4973713;28;19928;-69
2024/03/05 13:50:19;;;;;;;;;;;;;;;;;;4972801;28;19921;-68
2024/03/05 13:52:52;;;;;;;;;;;;;;;;;;4979282;28;19918;-68
2024/03/05 13:55:24;;;;;;;;;;;;;;;;;;4964288;28;20007;-68
2024/03/05 13:57:49;;;;;;;;;;;;;;;;;;4981404;28;19922;-69
2024/03/05 14:00:19;;;;;;;;;;;;;;;;;;4972884;28;20331;-67
2024/03/05 14:02:44;;;;;;;;;;;;;;;;;;4973937;28;19914;-67
2024/03/05 14:05:12;;;;;;;;;;;;;;;;;;4973309;28;19921;-67
2024/03/05 14:07:40;;;;;;;;;;;;;;;;;;4964224;28;19924;-67
2024/03/05 14:10:09;;;;;;;;;;;;;;;;;;4963340;28;20301;-68
2024/03/05 14:12:37;;;;;;;;;;;;;;;;;;4975255;28;20521;-67
2024/03/05 14:15:08;;;;;;;;;;;;;;;;;;4956792;28;19922;-68
2024/03/05 14:17:33;;;;;;;;;;;;;;;;;;4972068;28;19925;-67
2024/03/05 14:20:06;;;;;;;;;;;;;;;;;;4983133;28;20298;-67
2024/03/05 14:22:34;;;;;;;;;;;;;;;;;;4966717;28;20292;-75
2024/03/05 14:25:02;;;;;;;;;;;;;;;;;;4975715;28;19930;-68
2024/03/05 14:27:27;;;;;;;;;;;;;;;;;;4972053;28;19944;-68
2024/03/05 14:29:56;;;;;;;;;;;;;;;;;;4970765;28;19933;-68
2024/03/05 14:32:24;;;;;;;;;;;;;;;;;;4973156;28;19952;-69
2024/03/05 14:34:50;;;;;;;;;;;;;;;;;;4979997;28;20305;-68
2024/03/05 14:37:15;;;;;;;;;;;;;;;;;;4973059;28;19942;-68
2024/03/05 14:39:43;;;;;;;;;;;;;;;;;;4970985;28;19921;-68
2024/03/05 14:42:09;;;;;;;;;;;;;;;;;;4982944;28;20257;-67
2024/03/05 14:44:36;;;;;;;;;;;;;;;;;;4965338;28;20028;-68
2024/03/05 14:47:01;;;;;;;;;;;;;;;;;;4979844;28;19922;-68
2024/03/05 14:49:29;;;;;;;;;;;;;;;;;;4963408;28;19922;-68
2024/03/05 14:52:00;;;;;;;;;;;;;;;;;;4963787;28;19956;-68
2024/03/05 14:54:25;;;;;;;;;;;;;;;;;;4968610;28;19948;-69
2024/03/05 14:56:53;;;;;;;;;;;;;;;;;;4972609;28;20519;-68
2024/03/05 14:59:18;;;;;;;;;;;;;;;;;;4972076;28;20532;-70
2024/03/05 15:01:48;;;;;;;;;;;;;;;;;;4980570;28;20052;-67
2024/03/05 15:04:13;;;;;;;;;;;;;;;;;;4974631;28;19917;-69
2024/03/05 15:06:41;;;;;;;;;;;;;;;;;;4974930;28;19957;-67
2024/03/05 15:09:07;;;;;;;;;;;;;;;;;;4977501;28;19965;-68
2024/03/05 15:11:35;;;;;;;;;;;;;;;;;;4976318;28;20000;-70
2024/03/05 15:14:00;;;;;;;;;;;;;;;;;;4973607;28;20542;-68
2024/03/05 15:16:25;;;;;;;;;;;;;;;;;;4978389;28;19926;-68
2024/03/05 15:18:53;;;;;;;;;;;;;;;;;;4979229;28;19918;-74
2024/03/05 15:21:21;;;;;;;;;;;;;;;;;;4979026;28;19922;-69
2024/03/05 15:23:49;;;;;;;;;;;;;;;;;;4974357;28;19918;-71
2024/03/05 15:26:14;;;;;;;;;;;;;;;;;;4969229;28;19925;-69
2024/03/05 15:28:42;;;;;;;;;;;;;;;;;;4974769;28;20113;-70
2024/03/05 15:31:09;;;;;;;;;;;;;;;;;;4970212;28;19917;-68
2024/03/05 15:33:35;;;;;;;;;;;;;;;;;;4973087;28;19949;-68
2024/03/05 15:36:04;;;;;;;;;;;;;;;;;;4979583;28;21004;-69
2024/03/05 15:38:31;;;;;;;;;;;;;;;;;;4970813;28;20357;-70
2024/03/05 15:40:59;;;;;;;;;;;;;;;;;;4978303;28;19928;-68
2024/03/05 15:43:26;;;;;;;;;;;;;;;;;;4967102;28;20189;-70
2024/03/05 15:45:51;;;;;;;;;;;;;;;;;;4953764;28;19992;-68
2024/03/05 15:48:19;;;;;;;;;;;;;;;;;;4975268;28;21100;-71
2024/03/05 15:50:46;;;;;;;;;;;;;;;;;;4980570;28;19913;-69
2024/03/05 15:53:16;;;;;;;;;;;;;;;;;;4970836;28;20294;-69
2024/03/05 15:55:45;;;;;;;;;;;;;;;;;;4966730;28;19967;-67
2024/03/05 15:58:18;;;;;;;;;;;;;;;;;;4977301;28;20527;-69
2024/03/05 16:00:44;;;;;;;;;;;;;;;;;;4978690;28;20024;-69
2024/03/05 16:03:16;;;;;;;;;;;;;;;;;;4972298;28;19918;-70
2024/03/05 16:05:41;;;;;;;;;;;;;;;;;;4971918;28;19922;-69
2024/03/05 16:08:08;;;;;;;;;;;;;;;;;;4980276;28;20468;-69
2024/03/05 16:10:45;;;;;;;;;;;;;;;;;;4969901;28;20301;-68
2024/03/05 16:13:11;;;;;;;;;;;;;;;;;;4977881;28;19993;-72
2024/03/05 16:15:37;;;;;;;;;;;;;;;;;;4977905;28;19922;-67
2024/03/05 16:18:06;;;;;;;;;;;;;;;;;;4973279;28;20409;-67
2024/03/05 16:20:34;;;;;;;;;;;;;;;;;;4980137;28;19972;-68
2024/03/05 16:23:03;;;;;;;;;;;;;;;;;;4966518;28;19928;-73
2024/03/05 16:25:28;;;;;;;;;;;;;;;;;;4976803;28;19922;-68
2024/03/05 16:27:57;;;;;;;;;;;;;;;;;;4971451;28;20113;-72
2024/03/05 16:30:23;;;;;;;;;;;;;;;;;;4963203;28;20440;-69
2024/03/05 16:32:55;;;;;;;;;;;;;;;;;;4972306;28;19922;-68
2024/03/05 16:35:20;;;;;;;;;;;;;;;;;;4966950;28;20502;-66
2024/03/05 16:37:49;;;;;;;;;;;;;;;;;;4981640;28;19928;-68
2024/03/05 16:40:14;;;;;;;;;;;;;;;;;;4976773;28;19922;-68
2024/03/05 16:42:40;;;;;;;;;;;;;;;;;;4974921;28;19918;-68
2024/03/05 16:45:05;;;;;;;;;;;;;;;;;;4978006;28;19929;-69
2024/03/05 16:47:30;;;;;;;;;;;;;;;;;;4972780;28;20332;-67
2024/03/05 16:49:56;;;;;;;;;;;;;;;;;;4962681;28;21548;-69
2024/03/05 16:52:26;;;;;;;;;;;;;;;;;;4979376;28;20401;-67
2024/03/05 16:54:59;;;;;;;;;;;;;;;;;;4950925;28;19948;-67
2024/03/05 16:57:26;;;;;;;;;;;;;;;;;;4972895;28;20037;-67
2024/03/05 16:59:55;;;;;;;;;;;;;;;;;;4967539;28;19922;-67
2024/03/05 17:02:22;;;;;;;;;;;;;;;;;;4982639;28;19926;-68
2024/03/05 17:04:49;;;;;;;;;;;;;;;;;;4976018;28;19922;-71
2024/03/05 17:07:15;;;;;;;;;;;;;;;;;;4981696;28;19924;-67
2024/03/05 17:09:40;;;;;;;;;;;;;;;;;;4974221;28;20328;-69
2024/03/05 17:12:06;;;;;;;;;;;;;;;;;;4975637;28;20293;-69
2024/03/05 17:14:33;;;;;;;;;;;;;;;;;;4959363;28;19926;-70
2024/03/05 17:17:01;;;;;;;;;;;;;;;;;;4976269;28;19917;-69
2024/03/05 17:19:32;;;;;;;;;;;;;;;;;;4974430;28;20340;-69